Terminal Aerodrome Forecast
Issued by NWS Central Illinois

Home | Current Version | Previous Version | Text Only | Print | Product List | Glossary On
Versions: 1 2 3 4 5 6 7 8 9 10 11 12 13 14 15 16 17 18 19 20 21 22 23 24
000
FTUS43 KILX 180500
TAFPIA
TAF
KPIA 180528Z 1806/1906 VRB03KT P6SM SCT025 BKN250
     FM181200 VRB03KT P6SM OVC080
     FM181600 VRB03KT P6SM OVC050
      TEMPO 1816/1820 BKN030
     FM182100 VRB03KT P6SM SCT050 BKN250
     FM190100 VRB03KT P6SM SCT250=

USA.gov is the U.S. government's official web portal to all federal, state and local government web resources and services.